Time;durP1;ratioP1;P1;durP2;ratioP2;P2;SDS_P1;SDS_P2;PMS_P1;PMS_P2;Temp;Humidity;BMP_temperature;BMP_pressure;BME280_temperature;BME280_humidity;BME280_pressure;Samples;Min_cycle;Max_cycle;Signal;HPM_P1;HPM_P2
2024/01/05 00:00:08;;;;;;;0.95;0.40;;;19.70;39.90;;;;;;8327141;28;20034;-44
2024/01/05 00:04:09;;;;;;;0.20;0.20;;;19.60;40.90;;;;;;8327275;28;20030;-45
2024/01/05 00:08:10;;;;;;;1.20;0.82;;;19.40;41.60;;;;;;8327076;28;20053;-45
2024/01/05 00:12:11;;;;;;;0.52;0.50;;;19.50;41.40;;;;;;8326848;28;20125;-46
2024/01/05 00:16:18;;;;;;;0.80;0.60;;;19.60;41.00;;;;;;8326917;28;20038;-45
2024/01/05 00:20:19;;;;;;;1.70;0.50;;;19.60;40.70;;;;;;8325231;28;20025;-45
2024/01/05 00:24:20;;;;;;;0.50;0.50;;;19.60;40.40;;;;;;8326617;28;20033;-43
2024/01/05 00:28:20;;;;;;;0.30;0.30;;;19.70;40.30;;;;;;8326660;28;20036;-44
2024/01/05 00:32:21;;;;;;;0.30;0.30;;;19.70;40.20;;;;;;8326744;28;20702;-45
2024/01/05 00:36:22;;;;;;;0.30;0.30;;;19.70;40.10;;;;;;8326509;28;20056;-45
2024/01/05 00:40:22;;;;;;;0.43;0.43;;;19.70;40.10;;;;;;8326392;28;20034;-44
2024/01/05 00:44:23;;;;;;;0.30;0.30;;;19.70;40.00;;;;;;8326620;28;20026;-44
2024/01/05 00:48:24;;;;;;;0.32;0.32;;;19.70;40.00;;;;;;8326513;28;20032;-46
2024/01/05 00:52:24;;;;;;;0.43;0.43;;;19.50;41.00;;;;;;8326333;28;20037;-45
2024/01/05 00:56:25;;;;;;;0.52;0.50;;;19.40;41.70;;;;;;8326166;28;20034;-45
2024/01/05 01:00:26;;;;;;;0.40;0.40;;;19.40;41.30;;;;;;8326105;28;20045;-45
2024/01/05 01:04:26;;;;;;;0.35;0.35;;;19.50;40.90;;;;;;8324899;28;20108;-45
2024/01/05 01:08:27;;;;;;;0.70;0.50;;;19.60;40.70;;;;;;8325905;28;20120;-44
2024/01/05 01:12:28;;;;;;;0.35;0.32;;;19.60;40.50;;;;;;8324789;28;20033;-48
2024/01/05 01:16:29;;;;;;;0.52;0.43;;;19.60;40.30;;;;;;8308303;28;20065;-45
2024/01/05 01:20:30;;;;;;;;;;;19.60;40.10;;;;;;8326086;28;20037;-44
2024/01/05 01:24:30;;;;;;;0.40;0.40;;;19.60;40.10;;;;;;8325945;28;19999;-47
2024/01/05 01:28:31;;;;;;;0.65;0.50;;;19.70;40.10;;;;;;8325750;28;20040;-45
2024/01/05 01:32:32;;;;;;;1.48;0.60;;;19.70;40.00;;;;;;8331651;28;20045;-44
2024/01/05 01:36:32;;;;;;;0.40;0.40;;;19.60;40.10;;;;;;8331732;28;20125;-44
2024/01/05 01:40:33;;;;;;;0.30;0.30;;;19.50;41.00;;;;;;8331185;28;20065;-45
2024/01/05 01:44:34;;;;;;;0.40;0.40;;;19.30;41.60;;;;;;8329958;28;20108;-46
2024/01/05 01:48:34;;;;;;;0.95;0.60;;;19.40;41.30;;;;;;8331341;28;20495;-45
2024/01/05 01:52:40;;;;;;;0.38;0.38;;;19.50;40.90;;;;;;8331005;28;20040;-46
2024/01/05 01:56:43;;;;;;;0.32;0.32;;;19.50;40.60;;;;;;8329718;28;20037;-44
2024/01/05 02:00:45;;;;;;;0.30;0.30;;;19.60;40.40;;;;;;8330737;28;20407;-45
2024/01/05 02:04:51;;;;;;;0.32;0.30;;;19.60;40.30;;;;;;8330507;28;20037;-45
2024/01/05 02:08:53;;;;;;;0.25;0.25;;;19.60;40.20;;;;;;8330295;28;20503;-47
2024/01/05 02:12:54;;;;;;;0.30;0.30;;;19.60;40.10;;;;;;8330911;28;20046;-45
2024/01/05 02:16:55;;;;;;;0.50;0.50;;;19.60;40.00;;;;;;8330289;28;20090;-47
2024/01/05 02:21:02;;;;;;;0.55;0.40;;;19.60;40.00;;;;;;8329949;28;20108;-46
2024/01/05 02:25:04;;;;;;;0.73;0.40;;;19.60;40.20;;;;;;8330053;28;20064;-47
2024/01/05 02:29:04;;;;;;;;;;;19.40;41.20;;;;;;8330259;28;20132;-45
2024/01/05 02:33:05;;;;;;;0.50;0.33;;;19.30;41.60;;;;;;8329989;28;19909;-47
2024/01/05 02:37:06;;;;;;;0.40;0.40;;;19.40;41.20;;;;;;8328386;28;20030;-46
2024/01/05 02:41:06;;;;;;;0.50;0.50;;;19.50;40.90;;;;;;8329121;28;20025;-47
2024/01/05 02:45:07;;;;;;;0.50;0.50;;;19.50;40.70;;;;;;8329681;28;20087;-46
2024/01/05 02:49:08;;;;;;;0.45;0.35;;;19.50;40.40;;;;;;8329293;28;20033;-46
2024/01/05 02:53:09;;;;;;;0.45;0.43;;;19.60;40.30;;;;;;8329364;28;20037;-47
2024/01/05 02:57:10;;;;;;;0.45;0.40;;;19.60;40.20;;;;;;8328892;28;20033;-45
2024/01/05 03:01:15;;;;;;;0.57;0.50;;;19.60;40.10;;;;;;8328082;28;20060;-46
2024/01/05 03:05:16;;;;;;;0.55;0.55;;;19.60;40.10;;;;;;8328573;28;20487;-45
2024/01/05 03:09:17;;;;;;;0.55;0.55;;;19.60;40.00;;;;;;8328497;28;20049;-46
2024/01/05 03:13:18;;;;;;;0.40;0.40;;;19.60;40.30;;;;;;8328955;28;20094;-46
2024/01/05 03:17:18;;;;;;;0.60;0.60;;;19.40;41.20;;;;;;8328437;28;20065;-45
2024/01/05 03:21:19;;;;;;;0.40;0.40;;;19.30;41.50;;;;;;8328436;28;20030;-44
2024/01/05 03:25:20;;;;;;;0.80;0.40;;;19.40;41.20;;;;;;8328217;28;20035;-47
2024/01/05 03:29:20;;;;;;;0.65;0.40;;;19.50;40.80;;;;;;8328968;28;20094;-44
2024/01/05 03:33:21;;;;;;;0.40;0.40;;;19.50;40.60;;;;;;8328407;28;20467;-46
2024/01/05 03:37:22;;;;;;;0.85;0.40;;;19.50;40.40;;;;;;8327888;28;20391;-46
2024/01/05 03:41:22;;;;;;;0.30;0.30;;;19.50;40.30;;;;;;8327758;28;20476;-45
2024/01/05 03:45:23;;;;;;;0.52;0.52;;;19.50;40.20;;;;;;8327702;28;20072;-44
2024/01/05 03:49:24;;;;;;;0.47;0.40;;;19.50;40.10;;;;;;8327656;28;20120;-45
2024/01/05 03:53:24;;;;;;;0.65;0.35;;;19.50;40.00;;;;;;8325742;28;20030;-46
2024/01/05 03:57:25;;;;;;;0.60;0.50;;;19.50;39.90;;;;;;8327725;28;20048;-45
2024/01/05 04:01:26;;;;;;;0.40;0.40;;;19.50;40.30;;;;;;8327368;28;20099;-45
2024/01/05 04:05:26;;;;;;;0.40;0.40;;;19.40;41.20;;;;;;8325971;28;20033;-46
2024/01/05 04:09:27;;;;;;;0.40;0.40;;;19.30;41.40;;;;;;8327132;28;20403;-45
2024/01/05 04:13:28;;;;;;;0.73;0.50;;;19.40;41.00;;;;;;8327051;28;20063;-46
2024/01/05 04:17:28;;;;;;;0.40;0.38;;;19.40;40.70;;;;;;8326975;28;20044;-45
2024/01/05 04:21:29;;;;;;;0.85;0.52;;;19.50;40.50;;;;;;8325807;28;20033;-46
2024/01/05 04:25:30;;;;;;;0.43;0.28;;;19.50;40.30;;;;;;8326928;28;20029;-45
2024/01/05 04:29:31;;;;;;;0.95;0.90;;;19.50;40.20;;;;;;8327130;28;20036;-44
2024/01/05 04:33:31;;;;;;;0.73;0.50;;;19.50;40.10;;;;;;8327163;28;20064;-45
2024/01/05 04:37:32;;;;;;;1.10;0.70;;;19.50;40.00;;;;;;8326587;28;20037;-45
2024/01/05 04:41:33;;;;;;;0.30;0.30;;;19.50;39.90;;;;;;8326710;28;20447;-44
2024/01/05 04:45:37;;;;;;;0.45;0.40;;;19.50;39.80;;;;;;8327119;28;20038;-46
2024/01/05 04:49:37;;;;;;;0.50;0.47;;;19.50;40.50;;;;;;8326392;28;20086;-46
2024/01/05 04:53:38;;;;;;;0.73;0.50;;;19.40;41.30;;;;;;8326653;28;20030;-45
2024/01/05 04:57:38;;;;;;;0.60;0.35;;;19.30;41.50;;;;;;8325027;28;20033;-44
2024/01/05 05:01:39;;;;;;;0.77;0.50;;;19.30;41.10;;;;;;8326510;28;20361;-46
2024/01/05 05:05:40;;;;;;;1.10;0.60;;;19.40;40.70;;;;;;8331132;28;20036;-45
2024/01/05 05:09:41;;;;;;;0.68;0.45;;;19.50;40.60;;;;;;8332208;28;20057;-46
2024/01/05 05:13:41;;;;;;;0.85;0.55;;;19.50;40.30;;;;;;8332571;28;20383;-47
2024/01/05 05:17:42;;;;;;;0.57;0.50;;;19.50;40.10;;;;;;8332296;28;20071;-45
2024/01/05 05:21:43;;;;;;;0.40;0.40;;;19.60;40.00;;;;;;8332055;28;20056;-46
2024/01/05 05:25:43;;;;;;;0.50;0.50;;;19.70;39.80;;;;;;8331794;28;20163;-44
2024/01/05 05:29:44;;;;;;;0.40;0.40;;;19.70;39.60;;;;;;8331985;28;20036;-46
2024/01/05 05:33:45;;;;;;;0.50;0.50;;;19.70;39.50;;;;;;8331778;28;20107;-46
2024/01/05 05:37:46;;;;;;;0.38;0.38;;;19.70;40.10;;;;;;8331652;28;20339;-45
2024/01/05 05:41:46;;;;;;;0.85;0.70;;;19.50;41.10;;;;;;8331363;28;20100;-43
2024/01/05 05:45:47;;;;;;;0.73;0.32;;;19.50;41.00;;;;;;8331572;28;20036;-45
2024/01/05 05:49:48;;;;;;;1.38;0.55;;;19.60;40.60;;;;;;8331299;28;20491;-46
2024/01/05 05:53:48;;;;;;;0.60;0.47;;;19.70;40.20;;;;;;8329735;28;20036;-45
2024/01/05 05:57:49;;;;;;;0.40;0.40;;;19.70;39.90;;;;;;8330933;28;20120;-45
2024/01/05 06:01:50;;;;;;;0.40;0.40;;;19.80;39.90;;;;;;8330829;28;20064;-46
2024/01/05 06:05:51;;;;;;;0.38;0.35;;;19.80;39.70;;;;;;8330806;28;20049;-46
2024/01/05 06:09:51;;;;;;;1.02;0.45;;;19.80;39.60;;;;;;8330268;28;20507;-46
2024/01/05 06:13:52;;;;;;;1.05;0.50;;;19.80;39.50;;;;;;8330659;28;20399;-45
2024/01/05 06:17:53;;;;;;;0.40;0.40;;;19.80;39.30;;;;;;8329401;28;20037;-45
2024/01/05 06:21:53;;;;;;;0.45;0.40;;;19.90;39.40;;;;;;8330411;28;20387;-45
2024/01/05 06:25:54;;;;;;;0.50;0.50;;;19.80;40.00;;;;;;8329937;28;20040;-46
2024/01/05 06:29:58;;;;;;;0.30;0.30;;;19.60;41.00;;;;;;8329907;28;20045;-45
2024/01/05 06:33:58;;;;;;;0.30;0.30;;;19.60;40.90;;;;;;8329754;28;20088;-45
2024/01/05 06:37:59;;;;;;;0.52;0.50;;;19.70;40.40;;;;;;8330764;28;20113;-45
2024/01/05 06:42:00;;;;;;;1.15;0.43;;;19.80;40.10;;;;;;8329464;28;20032;-45
2024/01/05 06:46:00;;;;;;;0.80;0.70;;;19.80;39.90;;;;;;8329522;28;20021;-46
2024/01/05 06:50:02;;;;;;;0.50;0.40;;;19.80;39.70;;;;;;8329301;28;20495;-46
2024/01/05 06:54:03;;;;;;;0.60;0.50;;;19.80;39.60;;;;;;8329154;28;20064;-48
2024/01/05 06:58:04;;;;;;;0.30;0.30;;;19.80;39.40;;;;;;8329064;28;20041;-44
2024/01/05 07:02:05;;;;;;;0.40;0.40;;;19.80;39.40;;;;;;8329021;28;20372;-45
2024/01/05 07:06:06;;;;;;;;;;;19.90;39.30;;;;;;8329297;28;20385;-48
2024/01/05 07:10:07;;;;;;;0.53;0.53;;;19.80;39.20;;;;;;8328471;28;19943;-44
2024/01/05 07:14:08;;;;;;;0.80;0.40;;;19.70;40.10;;;;;;8328635;28;20025;-47
2024/01/05 07:18:09;;;;;;;1.30;0.90;;;19.60;41.00;;;;;;8327446;28;20026;-44
2024/01/05 07:22:09;;;;;;;0.63;0.50;;;19.60;40.80;;;;;;8327229;28;20033;-44
2024/01/05 07:26:10;;;;;;;0.55;0.50;;;19.60;40.30;;;;;;8327692;28;20112;-45
2024/01/05 07:30:11;;;;;;;1.20;0.55;;;19.80;40.10;;;;;;8327519;28;20408;-47
2024/01/05 07:34:12;;;;;;;0.70;0.47;;;19.80;39.70;;;;;;8328297;28;20692;-45
2024/01/05 07:38:12;;;;;;;0.77;0.50;;;19.80;39.60;;;;;;8327885;28;20033;-45
2024/01/05 07:42:13;;;;;;;0.40;0.40;;;19.90;39.60;;;;;;8327545;28;20057;-45
2024/01/05 07:46:14;;;;;;;0.50;0.45;;;19.90;39.40;;;;;;8327654;28;20124;-44
2024/01/05 07:50:15;;;;;;;0.43;0.40;;;19.90;39.40;;;;;;8327486;28;20056;-45
2024/01/05 07:54:15;;;;;;;0.40;0.40;;;19.90;39.30;;;;;;8327901;28;20037;-44
2024/01/05 07:58:16;;;;;;;0.30;0.30;;;19.90;39.70;;;;;;8327475;28;20037;-44
2024/01/05 08:02:18;;;;;;;0.47;0.47;;;19.80;40.20;;;;;;8327439;28;20036;-44
2024/01/05 08:06:19;;;;;;;0.88;0.50;;;19.60;41.00;;;;;;8327205;28;20033;-45
2024/01/05 08:10:20;;;;;;;0.30;0.30;;;19.60;40.70;;;;;;8327205;28;20057;-44
2024/01/05 08:14:21;;;;;;;0.65;0.50;;;19.70;40.20;;;;;;8327060;28;20072;-44
2024/01/05 08:18:22;;;;;;;0.50;0.50;;;19.80;39.90;;;;;;8327069;28;20149;-44
2024/01/05 08:22:25;;;;;;;0.40;0.40;;;19.80;39.80;;;;;;8326794;28;20026;-45
2024/01/05 08:26:25;;;;;;;0.60;0.60;;;19.80;39.50;;;;;;8326649;28;20721;-46
2024/01/05 08:30:26;;;;;;;0.40;0.40;;;19.90;39.50;;;;;;8326638;28;20030;-44
2024/01/05 08:34:27;;;;;;;0.50;0.50;;;19.90;39.40;;;;;;8325308;28;20049;-49
2024/01/05 08:38:27;;;;;;;0.50;0.50;;;19.90;39.30;;;;;;8328279;28;20395;-45
2024/01/05 08:42:28;;;;;;;0.63;0.50;;;19.90;39.20;;;;;;8332321;28;20074;-46
2024/01/05 08:46:29;;;;;;;0.55;0.45;;;19.90;39.20;;;;;;8332322;28;20032;-44
2024/01/05 08:50:30;;;;;;;0.50;0.50;;;19.70;40.20;;;;;;8333103;28;20048;-46
2024/01/05 08:54:31;;;;;;;0.60;0.57;;;19.60;41.00;;;;;;8332986;28;20038;-46
2024/01/05 08:58:31;;;;;;;0.47;0.47;;;19.60;40.70;;;;;;8333047;28;20048;-45
2024/01/05 09:02:32;;;;;;;0.52;0.50;;;19.70;40.30;;;;;;8332669;28;20493;-44
2024/01/05 09:06:33;;;;;;;0.50;0.50;;;19.70;40.00;;;;;;8332644;28;20041;-44
2024/01/05 09:10:33;;;;;;;0.40;0.40;;;19.80;39.90;;;;;;8332454;28;20039;-46
2024/01/05 09:14:36;;;;;;;0.43;0.30;;;19.70;39.70;;;;;;8332538;28;20052;-44
2024/01/05 09:18:38;;;;;;;0.47;0.38;;;19.80;39.60;;;;;;8332374;28;20083;-45
2024/01/05 09:22:38;;;;;;;0.88;0.60;;;19.80;39.50;;;;;;8332314;28;20500;-44
2024/01/05 09:26:41;;;;;;;0.32;0.32;;;19.80;39.40;;;;;;8332356;28;20544;-44
2024/01/05 09:30:42;;;;;;;0.50;0.47;;;19.90;39.30;;;;;;8332088;28;20029;-44
2024/01/05 09:34:43;;;;;;;;;;;19.90;39.20;;;;;;8332365;28;20037;-44
2024/01/05 09:38:43;;;;;;;0.50;0.50;;;19.70;40.30;;;;;;8331643;28;19913;-44
2024/01/05 09:42:51;;;;;;;0.65;0.55;;;19.50;41.00;;;;;;8331652;28;20452;-44
2024/01/05 09:46:52;;;;;;;0.40;0.40;;;19.60;40.60;;;;;;8331900;28;20120;-45
2024/01/05 09:50:55;;;;;;;0.50;0.50;;;19.70;40.10;;;;;;8330373;28;20087;-46
2024/01/05 09:54:56;;;;;;;0.75;0.45;;;19.80;39.90;;;;;;8331303;28;20128;-46
2024/01/05 09:58:57;;;;;;;;;;;19.80;39.60;;;;;;8331429;28;20026;-45
2024/01/05 10:03:07;;;;;;;1.00;0.63;;;19.90;39.50;;;;;;8331184;28;19916;-45
2024/01/05 10:07:08;;;;;;;0.50;0.50;;;19.90;39.40;;;;;;8330743;28;20037;-44
2024/01/05 10:11:09;;;;;;;0.63;0.60;;;19.90;39.30;;;;;;8329612;28;20041;-44
2024/01/05 10:15:12;;;;;;;0.40;0.40;;;19.90;39.30;;;;;;8330540;28;20383;-44
2024/01/05 10:19:17;;;;;;;0.57;0.40;;;19.90;39.20;;;;;;8330524;28;20038;-44
2024/01/05 10:23:18;;;;;;;0.40;0.40;;;19.90;39.30;;;;;;8330493;28;20060;-45
2024/01/05 10:27:19;;;;;;;0.50;0.50;;;19.70;40.40;;;;;;8330149;28;20038;-45
2024/01/05 10:31:20;;;;;;;0.52;0.52;;;19.60;41.00;;;;;;8330236;28;20053;-45
2024/01/05 10:35:24;;;;;;;0.30;0.30;;;19.70;40.50;;;;;;8329996;28;20045;-46
2024/01/05 10:39:24;;;;;;;0.63;0.45;;;19.80;40.10;;;;;;8329537;28;20072;-44
2024/01/05 10:43:26;;;;;;;0.93;0.60;;;19.80;39.80;;;;;;8329972;28;20033;-45
2024/01/05 10:47:31;;;;;;;0.70;0.50;;;19.80;39.60;;;;;;8329561;28;20034;-46
2024/01/05 10:51:33;;;;;;;0.70;0.50;;;19.90;39.50;;;;;;8329244;28;20025;-46
2024/01/05 10:55:35;;;;;;;1.08;0.57;;;19.90;39.30;;;;;;8329389;28;20025;-45
2024/01/05 10:59:36;;;;;;;0.52;0.50;;;19.90;39.30;;;;;;8329083;28;20040;-45
2024/01/05 11:03:43;;;;;;;0.68;0.60;;;19.90;39.20;;;;;;8328869;28;20025;-45
2024/01/05 11:07:46;;;;;;;0.52;0.50;;;19.90;39.20;;;;;;8328914;28;20049;-45
2024/01/05 11:12:02;;;;;;;0.40;0.40;;;19.90;39.50;;;;;;8328955;28;20399;-46
2024/01/05 11:16:18;;;;;;;0.80;0.50;;;19.70;40.50;;;;;;8328733;28;20033;-45
2024/01/05 11:21:02;;;;;;;0.90;0.50;;;19.60;40.70;;;;;;8328463;28;20087;-46
2024/01/05 11:25:04;;;;;;;0.82;0.70;;;19.70;40.30;;;;;;8328485;28;20052;-45
2024/01/05 11:29:05;;;;;;;0.52;0.40;;;19.80;40.00;;;;;;8328055;28;20115;-45
2024/01/05 11:33:06;;;;;;;0.40;0.40;;;19.80;39.70;;;;;;8328192;28;20092;-45
2024/01/05 11:37:08;;;;;;;0.40;0.40;;;19.80;39.60;;;;;;8327989;28;20030;-43
2024/01/05 11:41:19;;;;;;;0.50;0.50;;;19.90;39.40;;;;;;8327675;28;20036;-44
2024/01/05 11:45:41;;;;;;;0.50;0.50;;;19.90;39.30;;;;;;8328052;28;20098;-47
2024/01/05 11:49:42;;;;;;;0.50;0.40;;;19.90;39.80;;;;;;8327708;28;20087;-47
2024/01/05 11:53:44;;;;;;;0.40;0.40;;;19.90;39.20;;;;;;8327548;28;20691;-48
2024/01/05 11:57:47;;;;;;;0.60;0.60;;;19.90;39.10;;;;;;8327235;28;20506;-47
2024/01/05 12:01:53;;;;;;;0.30;0.30;;;19.80;40.10;;;;;;8327216;28;20064;-48
2024/01/05 12:06:01;;;;;;;0.57;0.50;;;19.60;40.90;;;;;;8327381;28;20033;-48
2024/01/05 12:10:01;;;;;;;0.45;0.40;;;19.60;40.50;;;;;;8327030;28;20060;-47
2024/01/05 12:14:02;;;;;;;0.50;0.50;;;19.80;40.10;;;;;;8326180;28;20038;-47
2024/01/05 12:18:11;;;;;;;1.33;0.52;;;19.80;39.90;;;;;;8327171;28;20514;-47
2024/01/05 12:22:11;;;;;;;0.30;0.30;;;19.90;39.70;;;;;;8327048;28;20037;-48
2024/01/05 12:26:13;;;;;;;0.50;0.50;;;19.90;39.50;;;;;;8326819;28;20044;-47
2024/01/05 12:30:14;;;;;;;;;;;19.90;39.40;;;;;;8326964;28;20372;-48
2024/01/05 12:34:17;;;;;;;0.40;0.40;;;19.90;39.30;;;;;;8326807;28;19909;-47
2024/01/05 12:38:28;;;;;;;0.73;0.50;;;19.90;39.20;;;;;;8326679;28;20036;-48
2024/01/05 12:42:29;;;;;;;0.75;0.50;;;19.90;39.10;;;;;;8326309;28;20033;-46
2024/01/05 12:46:29;;;;;;;1.05;0.50;;;19.90;39.30;;;;;;8326627;28;20112;-44
2024/01/05 12:50:30;;;;;;;0.60;0.50;;;19.70;40.30;;;;;;8326531;28;20396;-43
2024/01/05 12:54:43;;;;;;;0.68;0.52;;;19.50;40.90;;;;;;8326320;28;20579;-44
2024/01/05 12:58:46;;;;;;;1.08;0.65;;;19.70;40.50;;;;;;8326246;28;20484;-44
2024/01/05 13:02:47;;;;;;;0.30;0.30;;;19.70;40.10;;;;;;8326465;28;20034;-44
2024/01/05 13:06:48;;;;;;;0.40;0.40;;;19.80;39.90;;;;;;8308759;28;20100;-43
2024/01/05 13:10:48;;;;;;;0.43;0.43;;;19.80;39.70;;;;;;8326186;28;20034;-46
2024/01/05 13:14:49;;;;;;;0.98;0.57;;;19.80;39.50;;;;;;8326193;28;20060;-44
2024/01/05 13:18:50;;;;;;;0.52;0.50;;;19.80;39.40;;;;;;8325831;28;20033;-43
2024/01/05 13:23:00;;;;;;;0.60;0.60;;;19.80;39.30;;;;;;8326053;28;20076;-43
2024/01/05 13:27:01;;;;;;;0.85;0.50;;;19.90;39.30;;;;;;8329838;28;20030;-44
2024/01/05 13:31:01;;;;;;;0.55;0.50;;;19.90;39.20;;;;;;8332119;28;20042;-44
2024/01/05 13:35:02;;;;;;;0.40;0.40;;;19.90;39.40;;;;;;8332019;28;20082;-43
2024/01/05 13:39:03;;;;;;;1.10;0.70;;;19.70;40.50;;;;;;8331726;28;20395;-44
2024/01/05 13:43:04;;;;;;;0.70;0.50;;;19.50;40.90;;;;;;8331840;28;20324;-43
2024/01/05 13:47:04;;;;;;;0.30;0.30;;;19.70;40.50;;;;;;8331565;28;20033;-44
2024/01/05 13:51:05;;;;;;;0.52;0.52;;;19.70;40.00;;;;;;8332039;28;20530;-43
2024/01/05 13:55:07;;;;;;;0.38;0.30;;;19.80;39.80;;;;;;8331826;28;20042;-43
2024/01/05 13:59:08;;;;;;;0.50;0.30;;;19.80;39.60;;;;;;8331134;28;20025;-44
2024/01/05 14:03:09;;;;;;;0.25;0.25;;;19.90;39.50;;;;;;8331176;28;20060;-44
2024/01/05 14:07:10;;;;;;;;;;;19.90;39.40;;;;;;8331589;28;20060;-43
2024/01/05 14:11:15;;;;;;;0.40;0.40;;;19.80;39.30;;;;;;8330804;28;19909;-42
2024/01/05 14:15:16;;;;;;;0.50;0.50;;;19.90;39.30;;;;;;8330506;28;20037;-43
2024/01/05 14:19:17;;;;;;;0.60;0.50;;;19.80;39.20;;;;;;8330553;28;20041;-42
2024/01/05 14:23:17;;;;;;;0.43;0.43;;;19.90;39.60;;;;;;8330594;28;20083;-44
2024/01/05 14:27:18;;;;;;;0.50;0.50;;;19.70;40.60;;;;;;8330056;28;20410;-44
2024/01/05 14:31:30;;;;;;;0.47;0.45;;;19.50;40.80;;;;;;8330474;28;20029;-44
2024/01/05 14:35:31;;;;;;;0.40;0.40;;;19.70;40.40;;;;;;8329410;28;20033;-43
2024/01/05 14:39:32;;;;;;;0.55;0.55;;;19.80;40.00;;;;;;8329800;28;20080;-43
2024/01/05 14:43:34;;;;;;;0.70;0.40;;;19.80;39.80;;;;;;8329771;28;20029;-44
2024/01/05 14:47:34;;;;;;;0.60;0.60;;;19.90;39.60;;;;;;8330329;28;20026;-41
2024/01/05 14:51:35;;;;;;;0.55;0.55;;;19.90;39.50;;;;;;8328422;28;20051;-44
2024/01/05 14:55:36;;;;;;;0.55;0.50;;;19.80;39.40;;;;;;8328427;28;20133;-44
2024/01/05 14:59:37;;;;;;;0.40;0.40;;;19.80;39.30;;;;;;8329125;28;20540;-43
2024/01/05 15:03:38;;;;;;;0.60;0.60;;;19.80;39.20;;;;;;8329289;28;20030;-43
2024/01/05 15:07:38;;;;;;;;;;;19.90;39.20;;;;;;8329607;28;20056;-46
2024/01/05 15:11:39;;;;;;;0.50;0.50;;;19.80;39.70;;;;;;8329523;28;19916;-47
2024/01/05 15:15:40;;;;;;;0.40;0.40;;;19.70;40.60;;;;;;8328673;28;20034;-46
2024/01/05 15:19:41;;;;;;;0.82;0.40;;;19.60;40.80;;;;;;8327220;28;20048;-46
2024/01/05 15:23:42;;;;;;;0.95;0.70;;;19.70;40.30;;;;;;8328770;28;20402;-45
2024/01/05 15:27:43;;;;;;;0.52;0.52;;;19.80;40.00;;;;;;8328406;28;20553;-46
2024/01/05 15:31:44;;;;;;;0.70;0.70;;;19.90;39.70;;;;;;8328324;28;20390;-45
2024/01/05 15:35:45;;;;;;;0.80;0.50;;;19.80;39.60;;;;;;8328306;28;20037;-45
2024/01/05 15:39:45;;;;;;;0.65;0.50;;;19.80;40.00;;;;;;8327979;28;20112;-44
2024/01/05 15:43:47;;;;;;;0.55;0.55;;;19.90;39.40;;;;;;8327994;28;20087;-46
2024/01/05 15:47:48;;;;;;;0.60;0.50;;;19.80;39.30;;;;;;8326957;28;20033;-46
2024/01/05 15:51:50;;;;;;;0.98;0.60;;;19.90;39.20;;;;;;8327699;28;20510;-47
2024/01/05 15:55:50;;;;;;;0.40;0.40;;;19.90;39.20;;;;;;8327471;28;20037;-46
2024/01/05 15:59:51;;;;;;;0.50;0.50;;;19.80;39.90;;;;;;8326217;28;20036;-46
2024/01/05 16:03:52;;;;;;;0.40;0.40;;;19.60;40.80;;;;;;8327302;28;20037;-46
2024/01/05 16:07:52;;;;;;;0.45;0.40;;;19.50;40.80;;;;;;8327332;28;20103;-45
2024/01/05 16:11:53;;;;;;;0.88;0.60;;;19.60;40.40;;;;;;8327165;28;20379;-46
2024/01/05 16:16:13;;;;;;;0.65;0.50;;;19.80;40.00;;;;;;8326994;28;20048;-44
2024/01/05 16:20:14;;;;;;;0.40;0.40;;;19.80;39.80;;;;;;8326920;28;20032;-44
2024/01/05 16:24:14;;;;;;;0.73;0.60;;;19.80;39.50;;;;;;8326982;28;20113;-45
2024/01/05 16:28:15;;;;;;;0.50;0.40;;;19.90;39.40;;;;;;8327006;28;20034;-46
2024/01/05 16:32:16;;;;;;;0.70;0.70;;;19.90;39.30;;;;;;8326560;28;20044;-46
2024/01/05 16:36:17;;;;;;;0.88;0.50;;;19.90;39.20;;;;;;8327566;28;20106;-45
2024/01/05 16:40:19;;;;;;;0.50;0.50;;;19.90;39.10;;;;;;8326965;28;20032;-46
2024/01/05 16:44:19;;;;;;;0.47;0.40;;;19.90;39.10;;;;;;8325371;28;20091;-45
2024/01/05 16:48:20;;;;;;;0.57;0.50;;;19.80;39.90;;;;;;8326733;28;20057;-44
2024/01/05 16:52:21;;;;;;;0.50;0.50;;;19.60;40.80;;;;;;8326331;28;20034;-44
2024/01/05 16:56:24;;;;;;;0.95;0.60;;;19.60;40.70;;;;;;8326704;28;20179;-44
2024/01/05 17:00:25;;;;;;;0.82;0.50;;;19.70;40.20;;;;;;8329488;28;20049;-45
2024/01/05 17:04:26;;;;;;;0.43;0.43;;;19.80;39.90;;;;;;8332808;28;20041;-45
2024/01/05 17:08:27;;;;;;;0.50;0.50;;;19.80;39.60;;;;;;8332687;28;20053;-44
2024/01/05 17:12:28;;;;;;;0.52;0.35;;;19.90;39.50;;;;;;8332673;28;20056;-45
2024/01/05 17:16:29;;;;;;;1.52;0.60;;;19.80;39.40;;;;;;8332168;28;20116;-44
2024/01/05 17:20:29;;;;;;;0.50;0.47;;;19.90;39.30;;;;;;8332405;28;20056;-44
2024/01/05 17:24:30;;;;;;;0.63;0.55;;;19.90;39.20;;;;;;8332243;28;20030;-46
2024/01/05 17:28:31;;;;;;;0.82;0.50;;;19.80;39.10;;;;;;8332257;28;20111;-44
2024/01/05 17:32:31;;;;;;;0.50;0.47;;;19.90;39.10;;;;;;8332268;28;20300;-43
2024/01/05 17:36:39;;;;;;;0.50;0.40;;;19.80;40.00;;;;;;8331636;28;20483;-43
2024/01/05 17:40:39;;;;;;;0.50;0.50;;;19.60;40.90;;;;;;8331548;28;20037;-43
2024/01/05 17:44:42;;;;;;;0.93;0.82;;;19.60;40.60;;;;;;8323749;28;20056;-43
2024/01/05 17:48:43;;;;;;;2.40;1.38;;;19.60;40.50;;;;;;8309318;28;20561;-43
2024/01/05 17:52:43;;;;;;;1.77;1.20;;;19.60;41.10;;;;;;8321643;28;20452;-43
2024/01/05 17:56:44;;;;;;;2.80;1.95;;;19.70;40.60;;;;;;8326279;28;20038;-42
2024/01/05 18:00:46;;;;;;;2.72;1.40;;;19.70;40.20;;;;;;8332144;28;20061;-43
2024/01/05 18:04:46;;;;;;;1.55;1.30;;;19.80;39.90;;;;;;8315190;28;20034;-44
2024/01/05 18:08:47;;;;;;;3.63;1.20;;;19.80;39.70;;;;;;8310108;28;20499;-44
2024/01/05 18:12:49;;;;;;;2.47;1.13;;;19.90;39.60;;;;;;8330675;28;20049;-44
2024/01/05 18:16:50;;;;;;;2.35;1.60;;;19.90;39.40;;;;;;8328726;28;20045;-44
2024/01/05 18:20:51;;;;;;;3.03;1.63;;;20.00;39.30;;;;;;8318313;28;20049;-44
2024/01/05 18:24:51;;;;;;;5.63;1.70;;;20.00;39.30;;;;;;8322863;28;20561;-42
2024/01/05 18:28:52;;;;;;;2.10;1.70;;;20.00;39.30;;;;;;8326261;28;20067;-45
2024/01/05 18:32:53;;;;;;;4.70;2.00;;;19.90;39.90;;;;;;8331256;28;20480;-43
2024/01/05 18:36:54;;;;;;;4.75;2.58;;;19.80;40.80;;;;;;8330684;28;20033;-45
2024/01/05 18:40:55;;;;;;;9.52;4.07;;;19.70;41.00;;;;;;8322245;28;20400;-44
2024/01/05 18:44:55;;;;;;;;;;;19.80;40.60;;;;;;8330678;28;20033;-44
2024/01/05 18:48:56;;;;;;;9.23;2.90;;;19.90;40.50;;;;;;8311441;28;19920;-43
2024/01/05 18:52:57;;;;;;;13.57;3.22;;;19.90;40.90;;;;;;8297484;28;20108;-46
2024/01/05 18:56:58;;;;;;;9.32;3.10;;;20.00;41.10;;;;;;8314405;28;20061;-42
2024/01/05 19:00:59;;;;;;;;;;;20.10;41.50;;;;;;8312354;28;20049;-43
2024/01/05 19:05:00;;;;;;;10.20;2.53;;;20.10;41.40;;;;;;8323582;28;19992;-42
2024/01/05 19:09:00;;;;;;;8.77;3.25;;;20.10;41.00;;;;;;8296709;28;20419;-41
2024/01/05 19:13:01;;;;;;;9.35;3.03;;;20.20;41.40;;;;;;8296984;28;20030;-42
2024/01/05 19:17:02;;;;;;;9.25;3.40;;;20.30;41.50;;;;;;8297482;28;20034;-43
2024/01/05 19:21:03;;;;;;;6.57;2.53;;;20.20;41.70;;;;;;8296971;28;20048;-45
2024/01/05 19:25:04;;;;;;;12.40;3.10;;;20.00;42.90;;;;;;8296333;28;20076;-44
2024/01/05 19:29:05;;;;;;;8.23;3.25;;;20.00;43.90;;;;;;8324506;28;20025;-45
2024/01/05 19:33:06;;;;;;;17.27;3.13;;;20.10;44.50;;;;;;8321361;28;20061;-44
2024/01/05 19:37:06;;;;;;;8.85;3.60;;;20.20;44.90;;;;;;8323528;28;20038;-42
2024/01/05 19:41:09;;;;;;;16.92;3.72;;;20.30;44.50;;;;;;8327132;28;20049;-42
2024/01/05 19:45:11;;;;;;;8.65;3.28;;;20.40;46.00;;;;;;8325194;28;20033;-42
2024/01/05 19:49:13;;;;;;;14.32;3.40;;;20.50;46.30;;;;;;8301127;28;20026;-42
2024/01/05 19:53:13;;;;;;;12.50;3.90;;;20.50;46.60;;;;;;8313872;28;20532;-42
2024/01/05 19:57:15;;;;;;;7.55;2.85;;;20.50;47.00;;;;;;8325717;28;20368;-42
2024/01/05 20:01:16;;;;;;;8.93;3.20;;;20.60;47.00;;;;;;8328096;28;20490;-42
2024/01/05 20:05:17;;;;;;;10.38;3.40;;;20.60;48.10;;;;;;8310632;28;20039;-42
2024/01/05 20:09:18;;;;;;;8.90;3.33;;;20.50;48.80;;;;;;8303443;28;20073;-42
2024/01/05 20:13:19;;;;;;;;;;;20.30;49.40;;;;;;8328346;28;20025;-42
2024/01/05 20:17:20;;;;;;;42.03;6.53;;;20.30;49.10;;;;;;8322181;28;20008;-42
2024/01/05 20:21:21;;;;;;;14.57;3.40;;;20.40;48.10;;;;;;8294955;28;20117;-42
2024/01/05 20:25:24;;;;;;;10.10;3.42;;;20.50;47.40;;;;;;8295106;28;20038;-42
2024/01/05 20:29:24;;;;;;;16.13;4.47;;;20.50;47.30;;;;;;8315720;28;20046;-42
2024/01/05 20:33:27;;;;;;;9.35;3.90;;;20.40;46.80;;;;;;8318461;28;20128;-41
2024/01/05 20:37:28;;;;;;;18.55;3.72;;;20.50;46.80;;;;;;8320739;28;20045;-41
2024/01/05 20:41:29;;;;;;;28.38;3.97;;;20.50;47.00;;;;;;8327155;28;20067;-41
2024/01/05 20:45:30;;;;;;;27.42;4.20;;;20.40;46.60;;;;;;8327274;28;20105;-41
2024/01/05 20:49:30;;;;;;;20.02;4.32;;;20.40;46.40;;;;;;8318476;28;20049;-41
2024/01/05 20:53:32;;;;;;;20.50;4.20;;;20.50;46.30;;;;;;8324900;28;20037;-42
2024/01/05 20:57:32;;;;;;;;;;;20.40;46.70;;;;;;8315485;28;20038;-41
2024/01/05 21:01:33;;;;;;;18.67;3.80;;;20.10;47.30;;;;;;8311260;28;19964;-41